Time;durP1;ratioP1;P1;durP2;ratioP2;P2;SDS_P1;SDS_P2;PMS_P1;PMS_P2;Temp;Humidity;BMP_temperature;BMP_pressure;BME280_temperature;BME280_humidity;BME280_pressure;Samples;Min_cycle;Max_cycle;Signal;HPM_P1;HPM_P2
2022/10/12 00:01:05;;;;;;;30.58;19.02;;;;;;;;;;4963611;28;20833;-70
2022/10/12 00:03:33;;;;;;;34.92;20.10;;;;;;;;;;4964504;28;20058;-69
2022/10/12 00:06:05;;;;;;;33.92;21.08;;;;;;;;;;4964386;28;20093;-69
2022/10/12 00:08:33;;;;;;;36.08;20.55;;;;;;;;;;4963897;28;20051;-69
2022/10/12 00:10:58;;;;;;;34.40;20.77;;;;;;;;;;4964061;28;20145;-70
2022/10/12 00:13:23;;;;;;;34.88;20.38;;;;;;;;;;4963626;28;20150;-69
2022/10/12 00:15:49;;;;;;;39.97;20.50;;;;;;;;;;4964376;28;20057;-69
2022/10/12 00:18:14;;;;;;;37.47;21.60;;;;;;;;;;4963312;28;20047;-69
2022/10/12 00:20:40;;;;;;;44.78;23.67;;;;;;;;;;4964099;28;20051;-69
2022/10/12 00:23:06;;;;;;;45.97;24.77;;;;;;;;;;4961032;28;20054;-71
2022/10/12 00:25:36;;;;;;;51.38;25.38;;;;;;;;;;4964357;28;20055;-68
2022/10/12 00:28:02;;;;;;;45.30;23.42;;;;;;;;;;4964193;28;20117;-68
2022/10/12 00:30:27;;;;;;;42.70;24.08;;;;;;;;;;4962971;28;20074;-69
2022/10/12 00:32:53;;;;;;;41.75;21.42;;;;;;;;;;4964202;28;20047;-68
2022/10/12 00:35:18;;;;;;;51.03;23.25;;;;;;;;;;4963260;28;20395;-69
2022/10/12 00:37:43;;;;;;;41.08;23.55;;;;;;;;;;4964071;28;20110;-68
2022/10/12 00:40:09;;;;;;;45.05;23.52;;;;;;;;;;4962874;28;20043;-69
2022/10/12 00:42:35;;;;;;;47.53;22.98;;;;;;;;;;4963599;28;20110;-69
2022/10/12 00:45:00;;;;;;;48.85;24.00;;;;;;;;;;4963217;28;20046;-68
2022/10/12 00:47:32;;;;;;;40.85;22.27;;;;;;;;;;4963443;28;20125;-69
2022/10/12 00:50:24;;;;;;;44.33;24.40;;;;;;;;;;4963766;28;20070;-69
2022/10/12 00:53:10;;;;;;;45.00;23.45;;;;;;;;;;4962293;28;20201;-69
2022/10/12 00:55:46;;;;;;;47.40;23.33;;;;;;;;;;4963819;28;20150;-69
2022/10/12 00:58:12;;;;;;;57.58;25.02;;;;;;;;;;4963536;28;20049;-69
2022/10/12 01:00:39;;;;;;;53.60;26.15;;;;;;;;;;4954381;28;20042;-69
2022/10/12 01:03:08;;;;;;;51.83;25.42;;;;;;;;;;4962620;28;20412;-69
2022/10/12 01:05:35;;;;;;;51.72;25.85;;;;;;;;;;4963100;28;20573;-69
2022/10/12 01:08:01;;;;;;;55.00;27.45;;;;;;;;;;4962749;28;20053;-69
2022/10/12 01:10:27;;;;;;;51.10;26.63;;;;;;;;;;4961100;28;20062;-69
2022/10/12 01:12:52;;;;;;;58.65;28.27;;;;;;;;;;4961737;28;20139;-69
2022/10/12 01:15:18;;;;;;;53.22;26.50;;;;;;;;;;4959980;28;20047;-69
2022/10/12 01:17:58;;;;;;;54.78;27.98;;;;;;;;;;4961355;28;20154;-69
2022/10/12 01:20:57;;;;;;;61.90;30.45;;;;;;;;;;4959647;28;20046;-69
2022/10/12 01:23:25;;;;;;;68.85;30.38;;;;;;;;;;4962096;28;20042;-69
2022/10/12 01:25:53;;;;;;;68.70;30.48;;;;;;;;;;4963128;28;20058;-69
2022/10/12 01:28:53;;;;;;;80.13;31.85;;;;;;;;;;4962778;28;20051;-69
2022/10/12 01:31:40;;;;;;;60.75;30.40;;;;;;;;;;4961246;28;20077;-68
2022/10/12 01:34:28;;;;;;;63.20;30.13;;;;;;;;;;4962418;28;20043;-69
2022/10/12 01:37:03;;;;;;;62.45;30.55;;;;;;;;;;4962186;28;20402;-68
2022/10/12 01:39:42;;;;;;;69.57;30.92;;;;;;;;;;4962250;28;20569;-69
2022/10/12 01:42:15;;;;;;;64.07;29.83;;;;;;;;;;4962322;28;20054;-69
2022/10/12 01:44:40;;;;;;;62.80;30.63;;;;;;;;;;4962228;28;20053;-69
2022/10/12 01:47:06;;;;;;;68.32;31.83;;;;;;;;;;4962307;28;20051;-70
2022/10/12 01:49:33;;;;;;;57.25;29.70;;;;;;;;;;4962160;28;20050;-70
2022/10/12 01:52:20;;;;;;;71.30;30.88;;;;;;;;;;4962752;28;20051;-70
2022/10/12 01:55:10;;;;;;;61.85;28.08;;;;;;;;;;4961344;28;20062;-70
2022/10/12 01:57:54;;;;;;;67.38;30.38;;;;;;;;;;4962346;28;20043;-70
2022/10/12 02:00:20;;;;;;;57.63;29.02;;;;;;;;;;4962205;28;20130;-70
2022/10/12 02:03:07;;;;;;;60.80;28.15;;;;;;;;;;4962547;28;20113;-70
2022/10/12 02:05:41;;;;;;;55.65;26.67;;;;;;;;;;4960955;28;20504;-70
2022/10/12 02:08:09;;;;;;;51.22;25.48;;;;;;;;;;4962037;28;20201;-70
2022/10/12 02:10:43;;;;;;;56.83;28.35;;;;;;;;;;4962268;28;20065;-70
2022/10/12 02:13:12;;;;;;;54.42;28.30;;;;;;;;;;4961181;28;20051;-71
2022/10/12 02:15:39;;;;;;;47.85;26.02;;;;;;;;;;4961287;28;20070;-70
2022/10/12 02:18:06;;;;;;;50.90;24.75;;;;;;;;;;4954508;28;20538;-69
2022/10/12 02:20:34;;;;;;;47.13;24.48;;;;;;;;;;4962002;28;20054;-69
2022/10/12 02:23:00;;;;;;;49.72;23.98;;;;;;;;;;4960566;28;20056;-68
2022/10/12 02:25:27;;;;;;;47.22;24.50;;;;;;;;;;4961210;28;20145;-68
2022/10/12 02:27:59;;;;;;;42.83;23.77;;;;;;;;;;4960814;28;20495;-68
2022/10/12 02:30:25;;;;;;;42.30;23.92;;;;;;;;;;4961756;28;20054;-68
2022/10/12 02:33:01;;;;;;;46.65;24.77;;;;;;;;;;4961730;28;20055;-68
2022/10/12 02:35:33;;;;;;;48.30;24.38;;;;;;;;;;4961098;28;20055;-68
2022/10/12 02:37:59;;;;;;;49.63;24.45;;;;;;;;;;4943367;28;20060;-68
2022/10/12 02:40:35;;;;;;;63.40;25.45;;;;;;;;;;4944173;28;20047;-68
2022/10/12 02:43:08;;;;;;;49.25;24.25;;;;;;;;;;4961710;28;20106;-68
2022/10/12 02:45:34;;;;;;;53.10;25.95;;;;;;;;;;4963310;28;20515;-68
2022/10/12 02:48:00;;;;;;;50.50;24.85;;;;;;;;;;4968323;28;20047;-68
2022/10/12 02:50:27;;;;;;;54.75;26.05;;;;;;;;;;4966816;28;20054;-69
2022/10/12 02:52:53;;;;;;;49.83;25.63;;;;;;;;;;4968310;28;20086;-68
2022/10/12 02:55:18;;;;;;;46.45;25.40;;;;;;;;;;4966670;28;20708;-69
2022/10/12 02:57:44;;;;;;;39.80;22.63;;;;;;;;;;4967977;28;20066;-68
2022/10/12 03:00:10;;;;;;;46.30;23.58;;;;;;;;;;4966952;28;20062;-68
2022/10/12 03:02:35;;;;;;;42.70;21.95;;;;;;;;;;4968109;28;20495;-68
2022/10/12 03:05:01;;;;;;;42.03;22.92;;;;;;;;;;4967778;28;20050;-68
2022/10/12 03:07:26;;;;;;;47.65;23.05;;;;;;;;;;4967525;28;20574;-68
2022/10/12 03:09:52;;;;;;;49.83;24.98;;;;;;;;;;4967962;28;20038;-69
2022/10/12 03:12:17;;;;;;;48.05;24.35;;;;;;;;;;4967103;28;20057;-69
2022/10/12 03:14:43;;;;;;;54.33;23.98;;;;;;;;;;4967673;28;20054;-68
2022/10/12 03:17:08;;;;;;;51.30;23.95;;;;;;;;;;4967309;28;20101;-69
2022/10/12 03:19:34;;;;;;;52.33;25.08;;;;;;;;;;4967659;28;20061;-68
2022/10/12 03:21:59;;;;;;;55.42;25.50;;;;;;;;;;4966607;28;20065;-68
2022/10/12 03:24:25;;;;;;;43.97;23.60;;;;;;;;;;4967480;28;20053;-69
2022/10/12 03:26:50;;;;;;;44.28;22.52;;;;;;;;;;4967811;28;20434;-70
2022/10/12 03:29:16;;;;;;;47.47;23.75;;;;;;;;;;4967036;28;20058;-70
2022/10/12 03:31:41;;;;;;;50.35;23.67;;;;;;;;;;4967852;28;20054;-69
2022/10/12 03:34:07;;;;;;;51.28;26.27;;;;;;;;;;4966727;28;20042;-69
2022/10/12 03:36:32;;;;;;;45.22;23.63;;;;;;;;;;4965268;28;21118;-70
2022/10/12 03:38:58;;;;;;;48.70;23.52;;;;;;;;;;4967682;28;20051;-69
2022/10/12 03:41:23;;;;;;;50.47;23.38;;;;;;;;;;4967191;28;20118;-69
2022/10/12 03:43:49;;;;;;;43.90;22.35;;;;;;;;;;4963777;28;20701;-69
2022/10/12 03:46:14;;;;;;;38.97;22.73;;;;;;;;;;4967520;28;20047;-71
2022/10/12 03:48:40;;;;;;;44.13;23.10;;;;;;;;;;4949958;28;20061;-69
2022/10/12 03:51:05;;;;;;;54.70;25.23;;;;;;;;;;4967589;28;20045;-70
2022/10/12 03:53:31;;;;;;;55.42;25.77;;;;;;;;;;4966994;28;20054;-69
2022/10/12 03:55:57;;;;;;;56.67;25.17;;;;;;;;;;4966539;28;20495;-69
2022/10/12 03:58:22;;;;;;;44.40;24.00;;;;;;;;;;4963544;28;20047;-69
2022/10/12 04:00:54;;;;;;;52.38;24.48;;;;;;;;;;4963996;28;20058;-68
2022/10/12 04:03:20;;;;;;;;;;;;;;;;;;4963274;28;20050;-68
2022/10/12 04:05:53;;;;;;;44.65;22.63;;;;;;;;;;4962640;28;20908;-69
2022/10/12 04:08:19;;;;;;;49.45;24.30;;;;;;;;;;4966613;28;20125;-69
2022/10/12 04:10:44;;;;;;;52.83;26.15;;;;;;;;;;4968905;28;20062;-70
2022/10/12 04:13:10;;;;;;;49.58;26.30;;;;;;;;;;4971170;28;20042;-70
2022/10/12 04:15:35;;;;;;;49.80;25.45;;;;;;;;;;4970460;28;20047;-70
2022/10/12 04:18:01;;;;;;;53.42;26.67;;;;;;;;;;4967494;28;20043;-70
2022/10/12 04:20:27;;;;;;;51.92;25.77;;;;;;;;;;4969256;28;20050;-70
2022/10/12 04:22:52;;;;;;;57.83;26.08;;;;;;;;;;4971143;28;20047;-70
2022/10/12 04:25:17;;;;;;;50.45;26.45;;;;;;;;;;4969243;28;20053;-71
2022/10/12 04:27:43;;;;;;;58.65;27.30;;;;;;;;;;4969960;28;20066;-70
2022/10/12 04:30:09;;;;;;;54.10;27.15;;;;;;;;;;4971750;28;20050;-70
2022/10/12 04:32:35;;;;;;;59.00;27.67;;;;;;;;;;4975547;28;20061;-72
2022/10/12 04:35:00;;;;;;;60.15;29.25;;;;;;;;;;4974853;28;20050;-70
2022/10/12 04:37:26;;;;;;;69.72;28.77;;;;;;;;;;4971680;28;20051;-70
2022/10/12 04:39:52;;;;;;;59.05;29.52;;;;;;;;;;4957512;28;20134;-70
2022/10/12 04:42:17;;;;;;;74.18;31.92;;;;;;;;;;4972925;28;20072;-69
2022/10/12 04:44:43;;;;;;;78.93;31.67;;;;;;;;;;4970803;28;20051;-70
2022/10/12 04:47:08;;;;;;;78.70;31.67;;;;;;;;;;4963182;28;20047;-70
2022/10/12 04:49:33;;;;;;;58.20;27.67;;;;;;;;;;4968115;28;20055;-71
2022/10/12 04:51:59;;;;;;;53.45;26.80;;;;;;;;;;4962893;28;20051;-71
2022/10/12 04:54:24;;;;;;;53.15;27.80;;;;;;;;;;4960608;28;20052;-71
2022/10/12 04:56:50;;;;;;;62.50;27.35;;;;;;;;;;4960950;28;20133;-70
2022/10/12 04:59:15;;;;;;;70.28;31.15;;;;;;;;;;4961038;28;20035;-69
2022/10/12 05:01:41;;;;;;;69.22;30.80;;;;;;;;;;4958608;28;20094;-74
2022/10/12 05:04:06;;;;;;;59.70;29.77;;;;;;;;;;4962832;28;20458;-71
2022/10/12 05:06:31;;;;;;;65.45;30.20;;;;;;;;;;4962451;28;20054;-68
2022/10/12 05:08:57;;;;;;;64.82;29.38;;;;;;;;;;4961269;28;20034;-70
2022/10/12 05:11:23;;;;;;;55.55;26.75;;;;;;;;;;4957798;28;20507;-70
2022/10/12 05:13:48;;;;;;;56.65;28.25;;;;;;;;;;4959057;28;20137;-71
2022/10/12 05:16:13;;;;;;;59.38;27.85;;;;;;;;;;4961011;28;20049;-72
2022/10/12 05:18:39;;;;;;;64.68;28.60;;;;;;;;;;4961037;28;20378;-71
2022/10/12 05:21:04;;;;;;;62.63;26.77;;;;;;;;;;4960813;28;20086;-70
2022/10/12 05:23:30;;;;;;;55.15;27.77;;;;;;;;;;4959297;28;20125;-73
2022/10/12 05:25:55;;;;;;;53.58;27.85;;;;;;;;;;4960496;28;20089;-70
2022/10/12 05:28:21;;;;;;;51.83;26.08;;;;;;;;;;4959387;28;20077;-74
2022/10/12 05:30:51;;;;;;;53.47;26.80;;;;;;;;;;4960725;28;20113;-75
2022/10/12 05:33:16;;;;;;;57.90;26.38;;;;;;;;;;4959419;28;20133;-71
2022/10/12 05:35:43;;;;;;;59.75;26.25;;;;;;;;;;4961259;28;20042;-68
2022/10/12 05:38:09;;;;;;;56.75;27.30;;;;;;;;;;4961638;28;20051;-71
2022/10/12 05:40:34;;;;;;;64.97;27.58;;;;;;;;;;4962705;28;20053;-68
2022/10/12 05:43:00;;;;;;;67.57;28.10;;;;;;;;;;4962584;28;20789;-70
2022/10/12 05:45:25;;;;;;;75.93;30.25;;;;;;;;;;4959593;28;20057;-68
2022/10/12 05:47:51;;;;;;;67.82;28.20;;;;;;;;;;4962337;28;20141;-69
2022/10/12 05:50:16;;;;;;;61.67;27.52;;;;;;;;;;4962571;28;20129;-68
2022/10/12 05:52:42;;;;;;;62.15;27.52;;;;;;;;;;4962435;28;20407;-68
2022/10/12 05:55:08;;;;;;;60.72;28.67;;;;;;;;;;4959896;28;20046;-70
2022/10/12 05:57:33;;;;;;;70.05;28.88;;;;;;;;;;4962167;28;20492;-70
2022/10/12 05:59:58;;;;;;;53.75;27.00;;;;;;;;;;4962074;28;20500;-73
2022/10/12 06:02:24;;;;;;;60.17;27.65;;;;;;;;;;4956021;28;20058;-70
2022/10/12 06:04:49;;;;;;;58.17;26.35;;;;;;;;;;4959136;28;20134;-71
2022/10/12 06:07:15;;;;;;;66.55;26.33;;;;;;;;;;4958800;28;20058;-69
2022/10/12 06:09:41;;;;;;;80.13;31.98;;;;;;;;;;4962506;28;20042;-71
2022/10/12 06:12:07;;;;;;;88.13;31.45;;;;;;;;;;4962082;28;20061;-71
2022/10/12 06:14:32;;;;;;;77.43;31.40;;;;;;;;;;4961611;28;20050;-68
2022/10/12 06:16:58;;;;;;;73.60;30.15;;;;;;;;;;4962042;28;20058;-68
2022/10/12 06:19:23;;;;;;;73.68;31.15;;;;;;;;;;4959995;28;20049;-68
2022/10/12 06:21:49;;;;;;;85.68;33.80;;;;;;;;;;4961208;28;20061;-67
2022/10/12 06:24:14;;;;;;;73.82;30.45;;;;;;;;;;4961561;28;20049;-73
2022/10/12 06:26:39;;;;;;;61.15;26.75;;;;;;;;;;4960460;28;20054;-67
2022/10/12 06:29:05;;;;;;;54.40;26.15;;;;;;;;;;4960734;28;20521;-72
2022/10/12 06:31:32;;;;;;;57.00;25.40;;;;;;;;;;4961586;28;20466;-72
2022/10/12 06:33:58;;;;;;;55.58;25.80;;;;;;;;;;4961473;28;20050;-70
2022/10/12 06:36:23;;;;;;;56.85;25.25;;;;;;;;;;4961657;28;20056;-72
2022/10/12 06:38:49;;;;;;;48.38;24.33;;;;;;;;;;4961406;28;20082;-68
2022/10/12 06:41:14;;;;;;;51.10;23.08;;;;;;;;;;4960611;28;20459;-67
2022/10/12 06:43:40;;;;;;;62.53;23.55;;;;;;;;;;4961632;28;20066;-69
2022/10/12 06:46:05;;;;;;;39.90;20.90;;;;;;;;;;4961861;28;20082;-74
2022/10/12 06:48:31;;;;;;;48.35;22.25;;;;;;;;;;4961647;28;20079;-68
2022/10/12 06:50:57;;;;;;;44.78;21.90;;;;;;;;;;4960412;28;20924;-69
2022/10/12 06:53:22;;;;;;;42.95;22.02;;;;;;;;;;4960958;28;20558;-70
2022/10/12 06:55:48;;;;;;;41.35;21.67;;;;;;;;;;4961368;28;20065;-68
2022/10/12 06:58:13;;;;;;;57.63;23.33;;;;;;;;;;4976224;28;20046;-66
2022/10/12 07:00:39;;;;;;;48.40;23.58;;;;;;;;;;4961687;28;20070;-71
2022/10/12 07:03:04;;;;;;;50.42;24.38;;;;;;;;;;4960430;28;20066;-67
2022/10/12 07:05:30;;;;;;;63.40;25.40;;;;;;;;;;4959629;28;20129;-69
2022/10/12 07:07:55;;;;;;;63.85;25.38;;;;;;;;;;4961439;28;20466;-72
2022/10/12 07:10:21;;;;;;;54.60;23.77;;;;;;;;;;4961223;28;20090;-68
2022/10/12 07:12:47;;;;;;;57.17;24.88;;;;;;;;;;4960904;28;20057;-69
2022/10/12 07:15:12;;;;;;;50.20;23.55;;;;;;;;;;4959865;28;20130;-67
2022/10/12 07:17:38;;;;;;;51.78;23.92;;;;;;;;;;4961148;28;20112;-67
2022/10/12 07:20:04;;;;;;;52.63;21.85;;;;;;;;;;4960064;28;20051;-70
2022/10/12 07:22:29;;;;;;;62.63;25.73;;;;;;;;;;4961269;28;20050;-67
2022/10/12 07:24:55;;;;;;;59.13;23.02;;;;;;;;;;4959422;28;20058;-73
2022/10/12 07:27:20;;;;;;;57.05;24.02;;;;;;;;;;4960302;28;20137;-68
2022/10/12 07:29:46;;;;;;;53.13;22.35;;;;;;;;;;4959867;28;20554;-69
2022/10/12 07:32:12;;;;;;;51.03;22.67;;;;;;;;;;4963027;28;20050;-75
2022/10/12 07:34:37;;;;;;;47.30;21.02;;;;;;;;;;4964099;28;20050;-69
2022/10/12 07:37:03;;;;;;;49.10;21.65;;;;;;;;;;4964668;28;20047;-70
2022/10/12 07:39:28;;;;;;;46.55;21.58;;;;;;;;;;4964397;28;20195;-68
2022/10/12 07:41:54;;;;;;;49.95;22.55;;;;;;;;;;4963564;28;20058;-73
2022/10/12 07:44:21;;;;;;;52.22;21.88;;;;;;;;;;4964599;28;20479;-70
2022/10/12 07:46:48;;;;;;;53.13;23.15;;;;;;;;;;4961181;28;20050;-69
2022/10/12 07:49:15;;;;;;;52.72;23.67;;;;;;;;;;4960214;28;20647;-69
2022/10/12 07:51:41;;;;;;;48.72;21.80;;;;;;;;;;4961895;28;20066;-69
2022/10/12 07:54:07;;;;;;;41.70;20.92;;;;;;;;;;4962259;28;20050;-68
2022/10/12 07:56:32;;;;;;;39.60;19.02;;;;;;;;;;4961900;28;20051;-68
2022/10/12 07:58:58;;;;;;;36.35;18.83;;;;;;;;;;4962138;28;20051;-68
2022/10/12 08:01:28;;;;;;;40.03;18.80;;;;;;;;;;4962244;28;20049;-67
2022/10/12 08:03:54;;;;;;;39.20;18.33;;;;;;;;;;4964277;28;20046;-68
2022/10/12 08:06:22;;;;;;;46.85;19.40;;;;;;;;;;4964345;28;20051;-68
2022/10/12 08:08:48;;;;;;;38.83;18.45;;;;;;;;;;4962703;28;20141;-68
2022/10/12 08:11:14;;;;;;;38.25;18.92;;;;;;;;;;4963313;28;20598;-67
2022/10/12 08:13:40;;;;;;;37.03;18.38;;;;;;;;;;4963775;28;20050;-67
2022/10/12 08:16:10;;;;;;;38.42;17.52;;;;;;;;;;4963744;28;20139;-71
2022/10/12 08:18:36;;;;;;;32.22;15.95;;;;;;;;;;4962689;28;20085;-69
2022/10/12 08:21:07;;;;;;;35.78;16.08;;;;;;;;;;4963470;28;20157;-67
2022/10/12 08:23:34;;;;;;;32.47;15.88;;;;;;;;;;4963775;28;20051;-67
2022/10/12 08:25:59;;;;;;;28.60;14.73;;;;;;;;;;4963719;28;20045;-68
2022/10/12 08:28:25;;;;;;;25.13;13.90;;;;;;;;;;4964020;28;20039;-68
2022/10/12 08:30:51;;;;;;;33.22;16.05;;;;;;;;;;4962886;28;20050;-68
2022/10/12 08:33:17;;;;;;;37.72;18.83;;;;;;;;;;4963017;28;20541;-68
2022/10/12 08:35:44;;;;;;;40.80;18.73;;;;;;;;;;4963555;28;20062;-68
2022/10/12 08:38:11;;;;;;;38.42;18.23;;;;;;;;;;4962369;28;20526;-68
2022/10/12 08:40:47;;;;;;;31.95;16.70;;;;;;;;;;4962390;28;20134;-68
2022/10/12 08:43:45;;;;;;;36.63;17.92;;;;;;;;;;4961925;28;20388;-68
2022/10/12 08:46:11;;;;;;;37.67;17.38;;;;;;;;;;4963384;28;20546;-67
2022/10/12 08:48:49;;;;;;;44.15;19.50;;;;;;;;;;4963468;28;20102;-68
2022/10/12 08:51:21;;;;;;;42.00;20.75;;;;;;;;;;4962517;28;20034;-69
2022/10/12 08:53:56;;;;;;;52.58;30.17;;;;;;;;;;4962788;28;20051;-69
2022/10/12 08:56:22;;;;;;;44.65;19.85;;;;;;;;;;4963287;28;20049;-67
2022/10/12 08:58:49;;;;;;;37.65;18.70;;;;;;;;;;4963003;28;20134;-67
2022/10/12 09:01:47;;;;;;;38.25;18.27;;;;;;;;;;4962613;28;20046;-67
2022/10/12 09:04:37;;;;;;;40.08;19.05;;;;;;;;;;4962125;28;20423;-67
2022/10/12 09:07:16;;;;;;;38.45;18.20;;;;;;;;;;4963073;28;20104;-67
2022/10/12 09:09:48;;;;;;;34.55;17.50;;;;;;;;;;4960375;28;20138;-67
2022/10/12 09:12:35;;;;;;;36.08;18.23;;;;;;;;;;4962940;28;20054;-68
2022/10/12 09:15:05;;;;;;;33.53;17.15;;;;;;;;;;4961835;28;20061;-67
2022/10/12 09:17:37;;;;;;;35.08;17.38;;;;;;;;;;4962038;28;20055;-67
2022/10/12 09:20:19;;;;;;;30.77;17.38;;;;;;;;;;4962626;28;20145;-67
2022/10/12 09:22:48;;;;;;;29.35;16.83;;;;;;;;;;4962852;28;20047;-68
2022/10/12 09:25:15;;;;;;;32.80;17.23;;;;;;;;;;4959416;28;20047;-67
2022/10/12 09:27:44;;;;;;;34.30;17.02;;;;;;;;;;4962453;28;20046;-67
2022/10/12 09:30:12;;;;;;;29.65;17.08;;;;;;;;;;4962594;28;20068;-68
2022/10/12 09:32:47;;;;;;;33.53;17.70;;;;;;;;;;4962718;28;20070;-68
2022/10/12 09:35:13;;;;;;;35.72;18.48;;;;;;;;;;4960511;28;20173;-68
2022/10/12 09:37:39;;;;;;;28.27;17.25;;;;;;;;;;4962290;28;20070;-68
2022/10/12 09:40:13;;;;;;;35.88;19.20;;;;;;;;;;4962361;28;20137;-69
2022/10/12 09:42:38;;;;;;;40.83;22.63;;;;;;;;;;4961464;28;20051;-68
2022/10/12 09:45:10;;;;;;;35.88;19.92;;;;;;;;;;4962299;28;20389;-68
2022/10/12 09:47:35;;;;;;;42.72;21.23;;;;;;;;;;4958201;28;20134;-68
2022/10/12 09:50:03;;;;;;;37.03;18.80;;;;;;;;;;4961842;28;20462;-68
2022/10/12 09:52:35;;;;;;;35.28;18.98;;;;;;;;;;4962460;28;20459;-67
2022/10/12 09:55:06;;;;;;;36.22;19.90;;;;;;;;;;4961513;28;21130;-68
2022/10/12 09:57:34;;;;;;;37.80;19.75;;;;;;;;;;4960594;28;20059;-68
2022/10/12 10:00:05;;;;;;;39.03;19.40;;;;;;;;;;4961589;28;20049;-67
2022/10/12 10:02:48;;;;;;;37.65;20.85;;;;;;;;;;4962497;28;20507;-67
2022/10/12 10:05:29;;;;;;;43.15;20.42;;;;;;;;;;4961314;28;20068;-68
2022/10/12 10:08:13;;;;;;;38.63;19.17;;;;;;;;;;4962163;28;20051;-68
2022/10/12 10:11:00;;;;;;;32.13;18.10;;;;;;;;;;4961496;28;20051;-68
2022/10/12 10:13:29;;;;;;;30.90;16.55;;;;;;;;;;4961418;28;20042;-67
2022/10/12 10:16:24;;;;;;;32.13;16.98;;;;;;;;;;4961885;28;20054;-67
2022/10/12 10:18:52;;;;;;;29.33;17.10;;;;;;;;;;4960745;28;20436;-67
2022/10/12 10:21:30;;;;;;;32.05;16.10;;;;;;;;;;4959588;28;20051;-67
2022/10/12 10:24:01;;;;;;;31.92;15.48;;;;;;;;;;4961601;28;20425;-68
2022/10/12 10:26:29;;;;;;;36.20;16.97;;;;;;;;;;4961977;28;20058;-70
2022/10/12 10:29:14;;;;;;;30.33;16.90;;;;;;;;;;4961348;28;20510;-67
2022/10/12 10:31:39;;;;;;;31.15;15.15;;;;;;;;;;4960416;28;20499;-67
2022/10/12 10:34:19;;;;;;;26.73;14.63;;;;;;;;;;4961495;28;20145;-69
2022/10/12 10:36:50;;;;;;;29.50;14.27;;;;;;;;;;4961843;28;20526;-69
2022/10/12 10:39:27;;;;;;;25.20;14.88;;;;;;;;;;4961381;28;20051;-69
2022/10/12 10:41:54;;;;;;;26.10;14.55;;;;;;;;;;4961764;28;20055;-70
2022/10/12 10:44:31;;;;;;;24.35;15.15;;;;;;;;;;4961448;28;20523;-69
2022/10/12 10:47:06;;;;;;;28.60;15.48;;;;;;;;;;4961597;28;20046;-70
2022/10/12 10:49:58;;;;;;;25.85;14.93;;;;;;;;;;4961145;28;20065;-69
2022/10/12 10:52:34;;;;;;;27.02;13.80;;;;;;;;;;4960382;28;20043;-70
2022/10/12 10:55:24;;;;;;;22.60;13.50;;;;;;;;;;4959709;28;20039;-69
2022/10/12 10:58:05;;;;;;;24.05;13.27;;;;;;;;;;4959284;28;20184;-69
2022/10/12 11:00:34;;;;;;;26.38;13.30;;;;;;;;;;4961012;28;20218;-69
2022/10/12 11:03:10;;;;;;;23.48;13.57;;;;;;;;;;4961004;28;20059;-69
2022/10/12 11:05:42;;;;;;;26.42;14.23;;;;;;;;;;4960870;28;20109;-69
2022/10/12 11:08:16;;;;;;;25.45;13.30;;;;;;;;;;4964925;28;20456;-69
2022/10/12 11:10:43;;;;;;;25.63;13.25;;;;;;;;;;4963499;28;20490;-69
2022/10/12 11:13:20;;;;;;;23.35;12.82;;;;;;;;;;4965090;28;20043;-69
2022/10/12 11:16:18;;;;;;;22.42;13.13;;;;;;;;;;4955100;28;20089;-69
2022/10/12 11:18:49;;;;;;;22.98;12.05;;;;;;;;;;4948266;28;20043;-69
2022/10/12 11:21:20;;;;;;;26.17;12.57;;;;;;;;;;4962955;28;20069;-69
2022/10/12 11:24:03;;;;;;;22.15;12.32;;;;;;;;;;4965118;28;20081;-68
2022/10/12 11:27:05;;;;;;;19.67;11.73;;;;;;;;;;4964893;28;20042;-68
2022/10/12 11:29:34;;;;;;;21.70;12.27;;;;;;;;;;4957331;28;21463;-69
2022/10/12 11:32:10;;;;;;;23.48;11.45;;;;;;;;;;4964043;28;20141;-69
2022/10/12 11:34:53;;;;;;;19.05;11.55;;;;;;;;;;4963466;28;20058;-69
2022/10/12 11:37:22;;;;;;;23.17;11.10;;;;;;;;;;4962945;28;20065;-69
2022/10/12 11:39:54;;;;;;;24.08;11.48;;;;;;;;;;4962798;28;20047;-69
2022/10/12 11:42:29;;;;;;;19.30;11.60;;;;;;;;;;4964332;28;20074;-69
2022/10/12 11:44:56;;;;;;;20.05;11.40;;;;;;;;;;4963621;28;20142;-69
2022/10/12 11:47:35;;;;;;;20.42;11.18;;;;;;;;;;4961683;28;20101;-69
2022/10/12 11:50:26;;;;;;;21.20;11.15;;;;;;;;;;4963178;28;20043;-69
2022/10/12 11:52:53;;;;;;;18.50;10.68;;;;;;;;;;4963331;28;20110;-68
2022/10/12 11:55:58;;;;;;;16.58;10.65;;;;;;;;;;4962482;28;20053;-69
2022/10/12 11:58:30;;;;;;;20.67;11.18;;;;;;;;;;4962515;28;20171;-69
2022/10/12 12:01:12;;;;;;;23.42;11.25;;;;;;;;;;4963803;28;20034;-70
2022/10/12 12:03:44;;;;;;;21.77;11.75;;;;;;;;;;4963359;28;20158;-68
2022/10/12 12:06:27;;;;;;;20.20;11.35;;;;;;;;;;4963110;28;20055;-68
2022/10/12 12:09:01;;;;;;;21.90;11.70;;;;;;;;;;4963453;28;20106;-69
2022/10/12 12:11:29;;;;;;;18.05;10.95;;;;;;;;;;4962104;28;20042;-70
2022/10/12 12:14:20;;;;;;;20.70;10.65;;;;;;;;;;4962663;28;20035;-68
2022/10/12 12:16:47;;;;;;;22.67;11.18;;;;;;;;;;4961704;28;20066;-69
2022/10/12 12:19:17;;;;;;;18.13;11.43;;;;;;;;;;4945007;28;20046;-69
2022/10/12 12:22:12;;;;;;;18.73;9.68;;;;;;;;;;4961094;28;20154;-69
2022/10/12 12:24:39;;;;;;;17.10;10.25;;;;;;;;;;4947719;28;20054;-69
2022/10/12 12:27:31;;;;;;;20.38;10.77;;;;;;;;;;4961872;28;20057;-69
2022/10/12 12:29:59;;;;;;;19.88;11.60;;;;;;;;;;4970191;28;20157;-69
2022/10/12 12:32:39;;;;;;;17.40;10.02;;;;;;;;;;4961136;28;20570;-69
2022/10/12 12:35:05;;;;;;;22.05;11.20;;;;;;;;;;4962838;28;20050;-69
2022/10/12 12:37:33;;;;;;;24.77;11.75;;;;;;;;;;4963258;28;20061;-69
2022/10/12 12:39:58;;;;;;;25.75;11.73;;;;;;;;;;4962794;28;20054;-69
2022/10/12 12:42:30;;;;;;;21.35;11.07;;;;;;;;;;4962358;28;20047;-68
2022/10/12 12:44:58;;;;;;;24.45;11.95;;;;;;;;;;4963044;28;20055;-69
2022/10/12 12:47:37;;;;;;;18.27;11.10;;;;;;;;;;4962429;28;20051;-69
2022/10/12 12:50:25;;;;;;;17.48;10.45;;;;;;;;;;4962414;28;20875;-69
2022/10/12 12:52:55;;;;;;;19.92;11.93;;;;;;;;;;4977383;28;20053;-69
2022/10/12 12:55:34;;;;;;;21.77;12.18;;;;;;;;;;4960872;28;20109;-69
2022/10/12 12:58:18;;;;;;;20.75;11.68;;;;;;;;;;4962163;28;20522;-69
2022/10/12 13:01:10;;;;;;;22.40;11.20;;;;;;;;;;4961376;28;20703;-69
2022/10/12 13:03:38;;;;;;;19.58;11.55;;;;;;;;;;4962753;28;20074;-68
2022/10/12 13:06:09;;;;;;;21.98;10.90;;;;;;;;;;4961842;28;20051;-69
2022/10/12 13:09:03;;;;;;;21.42;11.85;;;;;;;;;;4963133;28;20077;-69
2022/10/12 13:11:51;;;;;;;22.05;11.65;;;;;;;;;;4962178;28;20058;-67
2022/10/12 13:14:32;;;;;;;16.02;11.45;;;;;;;;;;4961733;28;20039;-70
2022/10/12 13:17:19;;;;;;;18.77;12.10;;;;;;;;;;4961708;28;20595;-70
2022/10/12 13:19:44;;;;;;;18.45;11.30;;;;;;;;;;4960145;28;20042;-69
2022/10/12 13:22:24;;;;;;;17.85;11.48;;;;;;;;;;4962640;28;20061;-70
2022/10/12 13:24:55;;;;;;;18.65;10.68;;;;;;;;;;4957113;28;20574;-71
2022/10/12 13:27:37;;;;;;;22.30;11.00;;;;;;;;;;4959322;28;20053;-66
2022/10/12 13:30:14;;;;;;;23.33;11.07;;;;;;;;;;4959428;28;20054;-67
2022/10/12 13:32:52;;;;;;;21.33;11.82;;;;;;;;;;4960069;28;20039;-69
2022/10/12 13:35:38;;;;;;;18.70;11.52;;;;;;;;;;4973550;28;20138;-69
2022/10/12 13:38:05;;;;;;;22.88;10.63;;;;;;;;;;4959167;28;20078;-70
2022/10/12 13:40:39;;;;;;;24.85;11.23;;;;;;;;;;4960262;28;20101;-69
2022/10/12 13:43:19;;;;;;;19.95;10.60;;;;;;;;;;4960708;28;20236;-70
2022/10/12 13:45:46;;;;;;;17.35;10.10;;;;;;;;;;4956848;28;20050;-69
2022/10/12 13:48:18;;;;;;;19.40;10.10;;;;;;;;;;4960371;28;20154;-69
2022/10/12 13:51:04;;;;;;;18.60;11.52;;;;;;;;;;4960826;28;21080;-69
2022/10/12 13:53:37;;;;;;;19.17;9.68;;;;;;;;;;4975433;28;20046;-69
2022/10/12 13:56:12;;;;;;;24.95;10.68;;;;;;;;;;4960581;28;20130;-69
2022/10/12 13:58:39;;;;;;;18.67;10.02;;;;;;;;;;4960871;28;20046;-69
2022/10/12 14:01:05;;;;;;;18.15;10.05;;;;;;;;;;4960102;28;20053;-70
2022/10/12 14:03:43;;;;;;;18.58;10.65;;;;;;;;;;4960186;28;20546;-69
2022/10/12 14:06:24;;;;;;;18.75;10.30;;;;;;;;;;4960314;28;20046;-69
2022/10/12 14:08:50;;;;;;;21.92;10.43;;;;;;;;;;4960935;28;20057;-68
2022/10/12 14:11:16;;;;;;;17.20;10.45;;;;;;;;;;4958608;28;20047;-69
2022/10/12 14:13:44;;;;;;;20.80;11.68;;;;;;;;;;4959298;28;20047;-69
2022/10/12 14:16:12;;;;;;;22.13;11.35;;;;;;;;;;4960101;28;20634;-69
2022/10/12 14:18:43;;;;;;;20.92;11.82;;;;;;;;;;4960377;28;20050;-68
2022/10/12 14:21:18;;;;;;;21.80;11.55;;;;;;;;;;4959527;28;20050;-68
2022/10/12 14:23:51;;;;;;;24.30;11.30;;;;;;;;;;4959280;28;20514;-68
2022/10/12 14:26:27;;;;;;;20.27;11.27;;;;;;;;;;4959123;28;20047;-69
2022/10/12 14:28:53;;;;;;;19.83;11.02;;;;;;;;;;4960461;28;20058;-69
2022/10/12 14:31:47;;;;;;;27.77;11.82;;;;;;;;;;4959509;28;20066;-69
2022/10/12 14:34:27;;;;;;;18.75;11.35;;;;;;;;;;4959304;28;20058;-70
2022/10/12 14:37:00;;;;;;;23.27;10.82;;;;;;;;;;4960837;28;20046;-69
2022/10/12 14:39:25;;;;;;;26.10;12.02;;;;;;;;;;4959265;28;20051;-69